Weather at Hartsfield Jackson Atlanta International Airport

Public forecast

Using degrees Fahrenheit for public forecast. Weather courtesy of forecast.io.

Current aviation weather report (METAR) for Hartsfield Jackson Atlanta International Airport

Retrieved 2022/05/23 07:52 UTC (39 minutes ago):

KATL 230752Z 11005KT 10SM SCT070 SCT110 OVC150 21/18 A3010 RMK AO2 SLP183 T02110183

Aviation forecast (TAF) for Hartsfield Jackson Atlanta International Airport

Retrieved 2022/05/23 06:54 UTC (2 hours ago):

TAF KATL 230552Z 2306/2412 07004KT P6SM VCSH FEW060 SCT090 OVC120 FM230900 13005KT 6SM -RA SCT018 OVC030 FM231100 14006KT 6SM -SHRA SCT009 OVC018 FM231300 16012KT 4SM SHRA BR BKN008 OVC012 FM231700 22012KT P6SM VCSH SCT008 BKN012 OVC018 PROB30 2317/2323 4SM TSRA BKN012CB FM240500 26005KT 6SM BR BKN005 OVC008